sensor_id;sensor_type;location;lat;lon;timestamp;temperature;humidity
69800;DHT22;67217;51.008;4.644;2023-01-25T00:00:09;3.50;73.80
69800;DHT22;67217;51.008;4.644;2023-01-25T00:02:37;3.50;74.00
69800;DHT22;67217;51.008;4.644;2023-01-25T00:05:05;3.60;71.60
69800;DHT22;67217;51.008;4.644;2023-01-25T00:07:33;3.40;72.90
69800;DHT22;67217;51.008;4.644;2023-01-25T00:10:01;3.30;74.70
69800;DHT22;67217;51.008;4.644;2023-01-25T00:12:28;3.30;74.90
69800;DHT22;67217;51.008;4.644;2023-01-25T00:14:56;3.30;74.20
69800;DHT22;67217;51.008;4.644;2023-01-25T00:17:25;3.30;74.90
69800;DHT22;67217;51.008;4.644;2023-01-25T00:19:53;3.40;74.60
69800;DHT22;67217;51.008;4.644;2023-01-25T00:22:21;3.40;73.70
69800;DHT22;67217;51.008;4.644;2023-01-25T00:24:49;3.40;73.40
69800;DHT22;67217;51.008;4.644;2023-01-25T00:27:17;3.40;74.10
69800;DHT22;67217;51.008;4.644;2023-01-25T00:29:44;3.30;74.70
69800;DHT22;67217;51.008;4.644;2023-01-25T00:34:45;3.40;74.60
69800;DHT22;67217;51.008;4.644;2023-01-25T00:37:35;3.50;73.90
69800;DHT22;67217;51.008;4.644;2023-01-25T00:39:59;3.60;72.90
69800;DHT22;67217;51.008;4.644;2023-01-25T00:42:26;3.70;71.90
69800;DHT22;67217;51.008;4.644;2023-01-25T00:44:54;3.60;72.60
69800;DHT22;67217;51.008;4.644;2023-01-25T00:47:22;3.50;73.50
69800;DHT22;67217;51.008;4.644;2023-01-25T00:49:50;3.40;73.50
69800;DHT22;67217;51.008;4.644;2023-01-25T00:52:18;3.40;73.70
69800;DHT22;67217;51.008;4.644;2023-01-25T00:54:46;3.30;74.30
69800;DHT22;67217;51.008;4.644;2023-01-25T00:57:14;3.30;74.70
69800;DHT22;67217;51.008;4.644;2023-01-25T00:59:42;3.30;73.90
69800;DHT22;67217;51.008;4.644;2023-01-25T01:02:11;3.30;73.70
69800;DHT22;67217;51.008;4.644;2023-01-25T01:04:39;3.30;74.20
69800;DHT22;67217;51.008;4.644;2023-01-25T01:07:07;3.50;72.70
69800;DHT22;67217;51.008;4.644;2023-01-25T01:09:35;3.40;73.00
69800;DHT22;67217;51.008;4.644;2023-01-25T01:12:02;3.50;73.10
69800;DHT22;67217;51.008;4.644;2023-01-25T01:14:30;3.40;72.80
69800;DHT22;67217;51.008;4.644;2023-01-25T01:16:58;3.40;73.50
69800;DHT22;67217;51.008;4.644;2023-01-25T01:19:26;3.30;74.10
69800;DHT22;67217;51.008;4.644;2023-01-25T01:21:54;3.20;74.40
69800;DHT22;67217;51.008;4.644;2023-01-25T01:24:22;3.10;74.60
69800;DHT22;67217;51.008;4.644;2023-01-25T01:26:49;3.10;74.90
69800;DHT22;67217;51.008;4.644;2023-01-25T01:29:17;3.10;74.50
69800;DHT22;67217;51.008;4.644;2023-01-25T01:31:45;3.20;74.90
69800;DHT22;67217;51.008;4.644;2023-01-25T01:34:13;3.20;74.70
69800;DHT22;67217;51.008;4.644;2023-01-25T01:36:41;3.30;74.50
69800;DHT22;67217;51.008;4.644;2023-01-25T01:39:09;3.40;73.00
69800;DHT22;67217;51.008;4.644;2023-01-25T01:41:38;3.40;72.40
69800;DHT22;67217;51.008;4.644;2023-01-25T01:44:08;3.50;71.80
69800;DHT22;67217;51.008;4.644;2023-01-25T01:46:37;3.40;71.80
69800;DHT22;67217;51.008;4.644;2023-01-25T01:49:28;3.20;72.60
69800;DHT22;67217;51.008;4.644;2023-01-25T01:52:09;3.00;74.00
69800;DHT22;67217;51.008;4.644;2023-01-25T01:54:36;2.70;76.00
69800;DHT22;67217;51.008;4.644;2023-01-25T01:57:09;2.90;75.90
69800;DHT22;67217;51.008;4.644;2023-01-25T02:02:08;3.00;74.80
69800;DHT22;67217;51.008;4.644;2023-01-25T02:04:36;3.00;75.00
69800;DHT22;67217;51.008;4.644;2023-01-25T02:07:26;3.00;74.20
69800;DHT22;67217;51.008;4.644;2023-01-25T02:09:50;3.10;74.40
69800;DHT22;67217;51.008;4.644;2023-01-25T02:12:20;3.10;74.10
69800;DHT22;67217;51.008;4.644;2023-01-25T02:14:51;3.10;73.40
69800;DHT22;67217;51.008;4.644;2023-01-25T02:20:02;3.10;73.70
69800;DHT22;67217;51.008;4.644;2023-01-25T02:22:52;3.10;74.40
69800;DHT22;67217;51.008;4.644;2023-01-25T02:25:18;3.00;74.80
69800;DHT22;67217;51.008;4.644;2023-01-25T02:27:50;3.10;74.80
69800;DHT22;67217;51.008;4.644;2023-01-25T02:30:16;3.20;74.90
69800;DHT22;67217;51.008;4.644;2023-01-25T02:32:44;3.20;74.40
69800;DHT22;67217;51.008;4.644;2023-01-25T02:35:22;3.30;73.70
69800;DHT22;67217;51.008;4.644;2023-01-25T02:37:46;3.20;73.50
69800;DHT22;67217;51.008;4.644;2023-01-25T02:40:14;3.20;73.50
69800;DHT22;67217;51.008;4.644;2023-01-25T02:42:44;3.30;72.50
69800;DHT22;67217;51.008;4.644;2023-01-25T02:45:12;3.20;71.70
69800;DHT22;67217;51.008;4.644;2023-01-25T02:47:41;3.20;71.60
69800;DHT22;67217;51.008;4.644;2023-01-25T02:50:09;3.00;73.00
69800;DHT22;67217;51.008;4.644;2023-01-25T02:52:37;2.90;74.70
69800;DHT22;67217;51.008;4.644;2023-01-25T02:55:06;2.90;74.40
69800;DHT22;67217;51.008;4.644;2023-01-25T02:57:34;2.80;74.90
69800;DHT22;67217;51.008;4.644;2023-01-25T03:00:03;2.70;74.80
69800;DHT22;67217;51.008;4.644;2023-01-25T03:02:32;2.80;75.20
69800;DHT22;67217;51.008;4.644;2023-01-25T03:04:59;2.90;74.50
69800;DHT22;67217;51.008;4.644;2023-01-25T03:07:27;3.00;74.10
69800;DHT22;67217;51.008;4.644;2023-01-25T03:09:55;3.10;74.20
69800;DHT22;67217;51.008;4.644;2023-01-25T03:12:23;3.10;73.80
69800;DHT22;67217;51.008;4.644;2023-01-25T03:14:50;3.10;73.30
69800;DHT22;67217;51.008;4.644;2023-01-25T03:17:18;3.10;73.40
69800;DHT22;67217;51.008;4.644;2023-01-25T03:19:46;2.90;73.80
69800;DHT22;67217;51.008;4.644;2023-01-25T03:22:14;2.90;74.00
69800;DHT22;67217;51.008;4.644;2023-01-25T03:24:42;2.80;73.80
69800;DHT22;67217;51.008;4.644;2023-01-25T03:27:10;2.80;74.20
69800;DHT22;67217;51.008;4.644;2023-01-25T03:29:40;2.80;74.70
69800;DHT22;67217;51.008;4.644;2023-01-25T03:32:08;2.90;74.60
69800;DHT22;67217;51.008;4.644;2023-01-25T03:34:36;2.90;74.50
69800;DHT22;67217;51.008;4.644;2023-01-25T03:37:04;2.90;73.90
69800;DHT22;67217;51.008;4.644;2023-01-25T03:39:31;2.90;74.00
69800;DHT22;67217;51.008;4.644;2023-01-25T03:42:00;2.90;74.10
69800;DHT22;67217;51.008;4.644;2023-01-25T03:44:28;2.80;74.50
69800;DHT22;67217;51.008;4.644;2023-01-25T03:46:56;2.80;74.70
69800;DHT22;67217;51.008;4.644;2023-01-25T03:49:24;2.80;73.20
69800;DHT22;67217;51.008;4.644;2023-01-25T03:51:53;2.80;72.80
69800;DHT22;67217;51.008;4.644;2023-01-25T03:54:23;2.60;73.50
69800;DHT22;67217;51.008;4.644;2023-01-25T03:56:50;2.60;74.40
69800;DHT22;67217;51.008;4.644;2023-01-25T03:59:18;2.60;74.90
69800;DHT22;67217;51.008;4.644;2023-01-25T04:01:46;2.60;74.80
69800;DHT22;67217;51.008;4.644;2023-01-25T04:04:14;2.60;74.70
69800;DHT22;67217;51.008;4.644;2023-01-25T04:06:42;2.50;75.30
69800;DHT22;67217;51.008;4.644;2023-01-25T04:09:10;2.60;75.40
69800;DHT22;67217;51.008;4.644;2023-01-25T04:11:39;2.70;75.20
69800;DHT22;67217;51.008;4.644;2023-01-25T04:14:08;2.70;74.90
69800;DHT22;67217;51.008;4.644;2023-01-25T04:16:36;2.80;74.30
69800;DHT22;67217;51.008;4.644;2023-01-25T04:19:04;3.00;73.60
69800;DHT22;67217;51.008;4.644;2023-01-25T04:21:33;3.10;72.60
69800;DHT22;67217;51.008;4.644;2023-01-25T04:24:01;3.10;72.60
69800;DHT22;67217;51.008;4.644;2023-01-25T04:26:28;2.90;72.60
69800;DHT22;67217;51.008;4.644;2023-01-25T04:28:56;2.90;72.50
69800;DHT22;67217;51.008;4.644;2023-01-25T04:31:24;2.90;72.70
69800;DHT22;67217;51.008;4.644;2023-01-25T04:33:52;2.70;73.50
69800;DHT22;67217;51.008;4.644;2023-01-25T04:36:20;2.70;74.00
69800;DHT22;67217;51.008;4.644;2023-01-25T04:38:48;2.60;74.40
69800;DHT22;67217;51.008;4.644;2023-01-25T04:41:16;2.40;74.70
69800;DHT22;67217;51.008;4.644;2023-01-25T04:43:44;2.30;74.90
69800;DHT22;67217;51.008;4.644;2023-01-25T04:46:12;2.30;75.50
69800;DHT22;67217;51.008;4.644;2023-01-25T04:48:40;2.20;76.10
69800;DHT22;67217;51.008;4.644;2023-01-25T04:51:07;2.20;76.30
69800;DHT22;67217;51.008;4.644;2023-01-25T04:53:35;2.40;75.90
69800;DHT22;67217;51.008;4.644;2023-01-25T04:56:04;2.60;74.60
69800;DHT22;67217;51.008;4.644;2023-01-25T04:58:32;2.60;74.00
69800;DHT22;67217;51.008;4.644;2023-01-25T05:01:01;2.60;74.00
69800;DHT22;67217;51.008;4.644;2023-01-25T05:03:29;2.80;72.80
69800;DHT22;67217;51.008;4.644;2023-01-25T05:05:56;2.60;73.60
69800;DHT22;67217;51.008;4.644;2023-01-25T05:08:24;2.50;74.70
69800;DHT22;67217;51.008;4.644;2023-01-25T05:10:52;2.40;75.70
69800;DHT22;67217;51.008;4.644;2023-01-25T05:13:20;2.50;74.70
69800;DHT22;67217;51.008;4.644;2023-01-25T05:15:48;2.50;74.90
69800;DHT22;67217;51.008;4.644;2023-01-25T05:18:16;2.60;74.80
69800;DHT22;67217;51.008;4.644;2023-01-25T05:20:44;2.60;74.80
69800;DHT22;67217;51.008;4.644;2023-01-25T05:23:11;2.60;74.60
69800;DHT22;67217;51.008;4.644;2023-01-25T05:25:39;2.60;74.50
69800;DHT22;67217;51.008;4.644;2023-01-25T05:28:27;2.70;75.10
69800;DHT22;67217;51.008;4.644;2023-01-25T05:30:55;2.80;73.50
69800;DHT22;67217;51.008;4.644;2023-01-25T05:33:22;2.80;73.40
69800;DHT22;67217;51.008;4.644;2023-01-25T05:35:51;2.70;74.10
69800;DHT22;67217;51.008;4.644;2023-01-25T05:38:19;2.70;74.10
69800;DHT22;67217;51.008;4.644;2023-01-25T05:40:47;2.80;74.00
69800;DHT22;67217;51.008;4.644;2023-01-25T05:43:15;2.80;73.80
69800;DHT22;67217;51.008;4.644;2023-01-25T05:45:43;2.60;73.60
69800;DHT22;67217;51.008;4.644;2023-01-25T05:48:10;2.60;74.30
69800;DHT22;67217;51.008;4.644;2023-01-25T05:50:38;2.40;74.60
69800;DHT22;67217;51.008;4.644;2023-01-25T05:53:06;2.50;74.80
69800;DHT22;67217;51.008;4.644;2023-01-25T05:55:34;2.60;74.50
69800;DHT22;67217;51.008;4.644;2023-01-25T05:58:02;2.60;74.10
69800;DHT22;67217;51.008;4.644;2023-01-25T06:00:30;2.70;74.10
69800;DHT22;67217;51.008;4.644;2023-01-25T06:03:00;2.60;74.70
69800;DHT22;67217;51.008;4.644;2023-01-25T06:05:28;2.70;74.30
69800;DHT22;67217;51.008;4.644;2023-01-25T06:07:57;2.60;73.80
69800;DHT22;67217;51.008;4.644;2023-01-25T06:10:25;2.60;74.30
69800;DHT22;67217;51.008;4.644;2023-01-25T06:12:59;2.70;74.00
69800;DHT22;67217;51.008;4.644;2023-01-25T06:15:26;2.80;73.90
69800;DHT22;67217;51.008;4.644;2023-01-25T06:17:55;2.70;74.10
69800;DHT22;67217;51.008;4.644;2023-01-25T06:20:23;2.60;73.70
69800;DHT22;67217;51.008;4.644;2023-01-25T06:22:51;2.70;73.70
69800;DHT22;67217;51.008;4.644;2023-01-25T06:25:19;2.50;74.20
69800;DHT22;67217;51.008;4.644;2023-01-25T06:27:47;2.50;75.00
69800;DHT22;67217;51.008;4.644;2023-01-25T06:30:15;2.60;75.00
69800;DHT22;67217;51.008;4.644;2023-01-25T06:32:42;2.40;75.80
69800;DHT22;67217;51.008;4.644;2023-01-25T06:35:10;2.40;75.90
69800;DHT22;67217;51.008;4.644;2023-01-25T06:37:38;2.40;75.20
69800;DHT22;67217;51.008;4.644;2023-01-25T06:40:06;2.40;75.60
69800;DHT22;67217;51.008;4.644;2023-01-25T06:42:34;2.40;75.30
69800;DHT22;67217;51.008;4.644;2023-01-25T06:45:02;2.40;75.40
69800;DHT22;67217;51.008;4.644;2023-01-25T06:47:30;2.40;75.50
69800;DHT22;67217;51.008;4.644;2023-01-25T06:49:58;2.40;75.40
69800;DHT22;67217;51.008;4.644;2023-01-25T06:52:26;2.50;75.10
69800;DHT22;67217;51.008;4.644;2023-01-25T06:54:54;2.60;74.70
69800;DHT22;67217;51.008;4.644;2023-01-25T06:57:21;2.50;74.50
69800;DHT22;67217;51.008;4.644;2023-01-25T06:59:49;2.50;74.70
69800;DHT22;67217;51.008;4.644;2023-01-25T07:02:17;2.50;74.50
69800;DHT22;67217;51.008;4.644;2023-01-25T07:04:45;2.60;74.10
69800;DHT22;67217;51.008;4.644;2023-01-25T07:07:14;2.60;73.90
69800;DHT22;67217;51.008;4.644;2023-01-25T07:09:42;2.60;74.00
69800;DHT22;67217;51.008;4.644;2023-01-25T07:12:10;2.50;74.90
69800;DHT22;67217;51.008;4.644;2023-01-25T07:14:38;2.30;75.30
69800;DHT22;67217;51.008;4.644;2023-01-25T07:17:06;2.20;76.00
69800;DHT22;67217;51.008;4.644;2023-01-25T07:19:33;2.20;75.50
69800;DHT22;67217;51.008;4.644;2023-01-25T07:22:01;2.10;76.70
69800;DHT22;67217;51.008;4.644;2023-01-25T07:24:29;2.20;76.90
69800;DHT22;67217;51.008;4.644;2023-01-25T07:26:57;2.10;76.20
69800;DHT22;67217;51.008;4.644;2023-01-25T07:29:25;2.20;76.20
69800;DHT22;67217;51.008;4.644;2023-01-25T07:31:53;2.30;75.90
69800;DHT22;67217;51.008;4.644;2023-01-25T07:34:20;2.20;75.40
69800;DHT22;67217;51.008;4.644;2023-01-25T07:36:48;2.20;75.70
69800;DHT22;67217;51.008;4.644;2023-01-25T07:39:16;2.10;76.50
69800;DHT22;67217;51.008;4.644;2023-01-25T07:41:44;2.10;76.70
69800;DHT22;67217;51.008;4.644;2023-01-25T07:44:12;2.20;76.20
69800;DHT22;67217;51.008;4.644;2023-01-25T07:46:40;2.40;75.80
69800;DHT22;67217;51.008;4.644;2023-01-25T07:49:08;2.40;75.20
69800;DHT22;67217;51.008;4.644;2023-01-25T07:51:36;2.50;75.20
69800;DHT22;67217;51.008;4.644;2023-01-25T07:54:04;2.40;75.50
69800;DHT22;67217;51.008;4.644;2023-01-25T07:56:34;2.50;75.10
69800;DHT22;67217;51.008;4.644;2023-01-25T07:59:04;2.50;74.40
69800;DHT22;67217;51.008;4.644;2023-01-25T08:01:34;2.50;74.80
69800;DHT22;67217;51.008;4.644;2023-01-25T08:04:03;2.50;74.70
69800;DHT22;67217;51.008;4.644;2023-01-25T08:06:33;2.40;75.00
69800;DHT22;67217;51.008;4.644;2023-01-25T08:09:06;2.40;75.40
69800;DHT22;67217;51.008;4.644;2023-01-25T08:11:34;2.40;75.60
69800;DHT22;67217;51.008;4.644;2023-01-25T08:14:02;2.30;76.30
69800;DHT22;67217;51.008;4.644;2023-01-25T08:16:30;2.50;76.00
69800;DHT22;67217;51.008;4.644;2023-01-25T08:19:00;2.40;74.40
69800;DHT22;67217;51.008;4.644;2023-01-25T08:21:30;2.50;75.00
69800;DHT22;67217;51.008;4.644;2023-01-25T08:23:58;2.40;74.80
69800;DHT22;67217;51.008;4.644;2023-01-25T08:26:27;2.40;75.00
69800;DHT22;67217;51.008;4.644;2023-01-25T08:28:55;2.30;75.50
69800;DHT22;67217;51.008;4.644;2023-01-25T08:31:25;2.50;75.80
69800;DHT22;67217;51.008;4.644;2023-01-25T08:33:54;2.20;74.80
69800;DHT22;67217;51.008;4.644;2023-01-25T08:36:22;2.20;76.10
69800;DHT22;67217;51.008;4.644;2023-01-25T08:41:43;2.40;75.00
69800;DHT22;67217;51.008;4.644;2023-01-25T08:44:11;2.50;73.90
69800;DHT22;67217;51.008;4.644;2023-01-25T08:46:39;2.40;74.30
69800;DHT22;67217;51.008;4.644;2023-01-25T08:49:08;2.20;75.00
69800;DHT22;67217;51.008;4.644;2023-01-25T08:51:36;2.20;74.80
69800;DHT22;67217;51.008;4.644;2023-01-25T08:54:05;2.30;74.70
69800;DHT22;67217;51.008;4.644;2023-01-25T08:56:36;2.30;74.80
69800;DHT22;67217;51.008;4.644;2023-01-25T08:59:04;2.10;75.30
69800;DHT22;67217;51.008;4.644;2023-01-25T09:01:32;2.20;76.00
69800;DHT22;67217;51.008;4.644;2023-01-25T09:04:00;2.10;76.40
69800;DHT22;67217;51.008;4.644;2023-01-25T09:06:28;2.10;76.60
69800;DHT22;67217;51.008;4.644;2023-01-25T09:08:57;2.10;76.40
69800;DHT22;67217;51.008;4.644;2023-01-25T09:11:26;2.20;76.20
69800;DHT22;67217;51.008;4.644;2023-01-25T09:13:53;2.00;75.50
69800;DHT22;67217;51.008;4.644;2023-01-25T09:16:23;2.00;76.50
69800;DHT22;67217;51.008;4.644;2023-01-25T09:18:59;2.10;76.00
69800;DHT22;67217;51.008;4.644;2023-01-25T09:21:28;2.10;76.60
69800;DHT22;67217;51.008;4.644;2023-01-25T09:23:56;2.20;76.20
69800;DHT22;67217;51.008;4.644;2023-01-25T09:26:24;2.30;76.30
69800;DHT22;67217;51.008;4.644;2023-01-25T09:28:53;2.30;75.90
69800;DHT22;67217;51.008;4.644;2023-01-25T09:31:22;2.40;75.10
69800;DHT22;67217;51.008;4.644;2023-01-25T09:33:50;2.50;74.80
69800;DHT22;67217;51.008;4.644;2023-01-25T09:36:18;2.20;74.80
69800;DHT22;67217;51.008;4.644;2023-01-25T09:38:46;2.20;75.70
69800;DHT22;67217;51.008;4.644;2023-01-25T09:46:46;1.70;76.60
69800;DHT22;67217;51.008;4.644;2023-01-25T09:52:39;1.80;76.40
69800;DHT22;67217;51.008;4.644;2023-01-25T09:55:07;2.00;75.10
69800;DHT22;67217;51.008;4.644;2023-01-25T09:57:33;1.90;75.20
69800;DHT22;67217;51.008;4.644;2023-01-25T10:00:05;2.00;75.10
69800;DHT22;67217;51.008;4.644;2023-01-25T10:02:51;2.10;75.20
69800;DHT22;67217;51.008;4.644;2023-01-25T10:05:21;2.20;75.00
69800;DHT22;67217;51.008;4.644;2023-01-25T10:08:02;2.10;74.70
69800;DHT22;67217;51.008;4.644;2023-01-25T10:10:41;2.20;74.60
69800;DHT22;67217;51.008;4.644;2023-01-25T10:13:15;2.20;74.80
69800;DHT22;67217;51.008;4.644;2023-01-25T10:15:47;2.20;75.20
69800;DHT22;67217;51.008;4.644;2023-01-25T10:18:25;2.40;75.00
69800;DHT22;67217;51.008;4.644;2023-01-25T10:21:05;2.20;74.80
69800;DHT22;67217;51.008;4.644;2023-01-25T10:24:04;2.30;74.40
69800;DHT22;67217;51.008;4.644;2023-01-25T10:26:34;2.10;74.80
69800;DHT22;67217;51.008;4.644;2023-01-25T10:29:19;2.30;74.50
69800;DHT22;67217;51.008;4.644;2023-01-25T10:31:49;2.30;74.10
69800;DHT22;67217;51.008;4.644;2023-01-25T10:34:21;2.30;74.30
69800;DHT22;67217;51.008;4.644;2023-01-25T10:36:57;2.20;74.10
69800;DHT22;67217;51.008;4.644;2023-01-25T10:39:26;2.20;74.90
69800;DHT22;67217;51.008;4.644;2023-01-25T10:42:06;2.10;74.40
69800;DHT22;67217;51.008;4.644;2023-01-25T10:44:35;2.00;75.00
69800;DHT22;67217;51.008;4.644;2023-01-25T10:47:16;2.00;74.90
69800;DHT22;67217;51.008;4.644;2023-01-25T10:52:22;2.20;74.20
69800;DHT22;67217;51.008;4.644;2023-01-25T10:55:18;2.30;73.30
69800;DHT22;67217;51.008;4.644;2023-01-25T10:57:52;2.20;73.00
69800;DHT22;67217;51.008;4.644;2023-01-25T11:00:39;2.40;72.60
69800;DHT22;67217;51.008;4.644;2023-01-25T11:03:04;2.30;72.10
69800;DHT22;67217;51.008;4.644;2023-01-25T11:05:34;2.30;72.80
69800;DHT22;67217;51.008;4.644;2023-01-25T11:08:32;2.30;73.00
69800;DHT22;67217;51.008;4.644;2023-01-25T11:13:47;2.60;71.20
69800;DHT22;67217;51.008;4.644;2023-01-25T11:18:55;2.70;71.90
69800;DHT22;67217;51.008;4.644;2023-01-25T11:21:30;2.70;71.70
69800;DHT22;67217;51.008;4.644;2023-01-25T11:26:40;2.50;72.70
69800;DHT22;67217;51.008;4.644;2023-01-25T11:29:16;2.50;73.50
69800;DHT22;67217;51.008;4.644;2023-01-25T11:31:49;2.60;73.00
69800;DHT22;67217;51.008;4.644;2023-01-25T11:34:18;2.70;70.70
69800;DHT22;67217;51.008;4.644;2023-01-25T11:36:55;2.70;70.50
69800;DHT22;67217;51.008;4.644;2023-01-25T11:44:48;2.50;73.40
69800;DHT22;67217;51.008;4.644;2023-01-25T11:50:18;2.60;72.60
69800;DHT22;67217;51.008;4.644;2023-01-25T11:58:28;2.40;72.80
69800;DHT22;67217;51.008;4.644;2023-01-25T12:10:22;2.70;71.60
69800;DHT22;67217;51.008;4.644;2023-01-25T12:15:22;2.80;71.60
69800;DHT22;67217;51.008;4.644;2023-01-25T12:17:54;2.40;72.50
69800;DHT22;67217;51.008;4.644;2023-01-25T12:23:35;2.10;74.70
69800;DHT22;67217;51.008;4.644;2023-01-25T12:29:28;2.40;73.00
69800;DHT22;67217;51.008;4.644;2023-01-25T12:32:42;2.20;73.40
69800;DHT22;67217;51.008;4.644;2023-01-25T12:34:32;2.30;74.00
69800;DHT22;67217;51.008;4.644;2023-01-25T12:36:58;2.40;73.80
69800;DHT22;67217;51.008;4.644;2023-01-25T12:39:32;2.70;72.20
69800;DHT22;67217;51.008;4.644;2023-01-25T12:42:15;2.70;71.80
69800;DHT22;67217;51.008;4.644;2023-01-25T12:52:38;2.80;72.00
69800;DHT22;67217;51.008;4.644;2023-01-25T12:55:12;2.80;72.20
69800;DHT22;67217;51.008;4.644;2023-01-25T13:00:21;2.20;75.00
69800;DHT22;67217;51.008;4.644;2023-01-25T13:08:53;2.20;73.80
69800;DHT22;67217;51.008;4.644;2023-01-25T13:11:32;2.30;73.70
69800;DHT22;67217;51.008;4.644;2023-01-25T13:16:50;2.40;73.90
69800;DHT22;67217;51.008;4.644;2023-01-25T13:21:58;2.50;72.70
69800;DHT22;67217;51.008;4.644;2023-01-25T13:24:34;2.60;72.10
69800;DHT22;67217;51.008;4.644;2023-01-25T13:27:44;2.50;72.40
69800;DHT22;67217;51.008;4.644;2023-01-25T13:29:46;2.50;71.80
69800;DHT22;67217;51.008;4.644;2023-01-25T13:34:55;2.30;73.50
69800;DHT22;67217;51.008;4.644;2023-01-25T13:37:32;2.30;72.40
69800;DHT22;67217;51.008;4.644;2023-01-25T13:43:02;2.40;73.70
69800;DHT22;67217;51.008;4.644;2023-01-25T13:45:36;2.60;72.20
69800;DHT22;67217;51.008;4.644;2023-01-25T13:50:50;2.40;72.30
69800;DHT22;67217;51.008;4.644;2023-01-25T13:53:21;2.40;72.60
69800;DHT22;67217;51.008;4.644;2023-01-25T13:55:56;2.40;73.20
69800;DHT22;67217;51.008;4.644;2023-01-25T13:58:28;2.20;73.20
69800;DHT22;67217;51.008;4.644;2023-01-25T14:01:05;2.20;73.40
69800;DHT22;67217;51.008;4.644;2023-01-25T14:03:42;2.20;73.90
69800;DHT22;67217;51.008;4.644;2023-01-25T14:06:18;2.40;72.90
69800;DHT22;67217;51.008;4.644;2023-01-25T14:08:47;2.40;71.80
69800;DHT22;67217;51.008;4.644;2023-01-25T14:11:24;2.40;72.20
69800;DHT22;67217;51.008;4.644;2023-01-25T14:14:03;2.50;72.40
69800;DHT22;67217;51.008;4.644;2023-01-25T14:16:31;2.40;72.50
69800;DHT22;67217;51.008;4.644;2023-01-25T14:22:09;2.10;74.80
69800;DHT22;67217;51.008;4.644;2023-01-25T14:24:19;2.30;74.50
69800;DHT22;67217;51.008;4.644;2023-01-25T14:26:47;2.40;73.60
69800;DHT22;67217;51.008;4.644;2023-01-25T14:29:19;2.40;73.60
69800;DHT22;67217;51.008;4.644;2023-01-25T14:31:48;2.40;73.50
69800;DHT22;67217;51.008;4.644;2023-01-25T14:34:17;2.30;73.40
69800;DHT22;67217;51.008;4.644;2023-01-25T14:36:46;2.10;74.50
69800;DHT22;67217;51.008;4.644;2023-01-25T14:39:28;2.00;74.90
69800;DHT22;67217;51.008;4.644;2023-01-25T14:41:53;2.10;74.30
69800;DHT22;67217;51.008;4.644;2023-01-25T14:44:22;2.10;73.10
69800;DHT22;67217;51.008;4.644;2023-01-25T14:47:18;2.00;73.60
69800;DHT22;67217;51.008;4.644;2023-01-25T14:49:23;2.00;74.00
69800;DHT22;67217;51.008;4.644;2023-01-25T14:52:06;1.90;74.00
69800;DHT22;67217;51.008;4.644;2023-01-25T14:54:36;2.10;73.80
69800;DHT22;67217;51.008;4.644;2023-01-25T14:57:06;2.30;73.40
69800;DHT22;67217;51.008;4.644;2023-01-25T14:59:44;2.20;73.30
69800;DHT22;67217;51.008;4.644;2023-01-25T15:05:27;2.20;74.50
69800;DHT22;67217;51.008;4.644;2023-01-25T15:10:22;2.20;74.50
69800;DHT22;67217;51.008;4.644;2023-01-25T15:18:48;2.30;73.40
69800;DHT22;67217;51.008;4.644;2023-01-25T15:21:27;2.30;73.70
69800;DHT22;67217;51.008;4.644;2023-01-25T15:23:57;2.30;73.80
69800;DHT22;67217;51.008;4.644;2023-01-25T15:26:28;2.30;73.60
69800;DHT22;67217;51.008;4.644;2023-01-25T15:29:02;2.30;72.90
69800;DHT22;67217;51.008;4.644;2023-01-25T15:31:31;2.30;72.80
69800;DHT22;67217;51.008;4.644;2023-01-25T15:33:59;2.40;72.90
69800;DHT22;67217;51.008;4.644;2023-01-25T15:36:29;2.30;73.70
69800;DHT22;67217;51.008;4.644;2023-01-25T15:38:57;2.20;73.20
69800;DHT22;67217;51.008;4.644;2023-01-25T15:41:25;2.00;73.40
69800;DHT22;67217;51.008;4.644;2023-01-25T15:43:52;2.00;73.70
69800;DHT22;67217;51.008;4.644;2023-01-25T15:46:25;1.90;74.40
69800;DHT22;67217;51.008;4.644;2023-01-25T15:48:54;2.10;73.80
69800;DHT22;67217;51.008;4.644;2023-01-25T15:51:22;2.10;72.80
69800;DHT22;67217;51.008;4.644;2023-01-25T15:53:50;2.00;73.50
69800;DHT22;67217;51.008;4.644;2023-01-25T15:56:19;1.90;74.30
69800;DHT22;67217;51.008;4.644;2023-01-25T15:58:52;1.90;74.60
69800;DHT22;67217;51.008;4.644;2023-01-25T16:01:21;2.00;74.70
69800;DHT22;67217;51.008;4.644;2023-01-25T16:03:52;2.00;75.20
69800;DHT22;67217;51.008;4.644;2023-01-25T16:08:53;1.90;74.90
69800;DHT22;67217;51.008;4.644;2023-01-25T16:11:21;1.80;75.30
69800;DHT22;67217;51.008;4.644;2023-01-25T16:13:48;1.50;76.30
69800;DHT22;67217;51.008;4.644;2023-01-25T16:16:19;1.70;77.30
69800;DHT22;67217;51.008;4.644;2023-01-25T16:18:47;1.80;76.20
69800;DHT22;67217;51.008;4.644;2023-01-25T16:21:16;1.80;75.00
69800;DHT22;67217;51.008;4.644;2023-01-25T16:23:43;1.90;74.70
69800;DHT22;67217;51.008;4.644;2023-01-25T16:26:22;1.80;75.10
69800;DHT22;67217;51.008;4.644;2023-01-25T16:28:50;1.70;75.40
69800;DHT22;67217;51.008;4.644;2023-01-25T16:31:18;1.60;75.40
69800;DHT22;67217;51.008;4.644;2023-01-25T16:33:46;1.50;76.20
69800;DHT22;67217;51.008;4.644;2023-01-25T16:36:16;1.40;76.50
69800;DHT22;67217;51.008;4.644;2023-01-25T16:38:44;1.20;78.00
69800;DHT22;67217;51.008;4.644;2023-01-25T16:41:12;1.20;77.50
69800;DHT22;67217;51.008;4.644;2023-01-25T16:43:41;1.30;77.20
69800;DHT22;67217;51.008;4.644;2023-01-25T16:46:17;1.10;77.40
69800;DHT22;67217;51.008;4.644;2023-01-25T16:48:46;1.20;77.00
69800;DHT22;67217;51.008;4.644;2023-01-25T16:51:16;1.30;77.00
69800;DHT22;67217;51.008;4.644;2023-01-25T16:53:45;1.20;77.40
69800;DHT22;67217;51.008;4.644;2023-01-25T16:56:26;1.30;76.90
69800;DHT22;67217;51.008;4.644;2023-01-25T16:58:51;1.10;77.50
69800;DHT22;67217;51.008;4.644;2023-01-25T17:01:20;1.10;78.40
69800;DHT22;67217;51.008;4.644;2023-01-25T17:03:49;1.10;78.90
69800;DHT22;67217;51.008;4.644;2023-01-25T17:06:24;1.00;79.30
69800;DHT22;67217;51.008;4.644;2023-01-25T17:08:48;0.90;80.10
69800;DHT22;67217;51.008;4.644;2023-01-25T17:11:17;1.10;79.30
69800;DHT22;67217;51.008;4.644;2023-01-25T17:13:54;1.00;79.30
69800;DHT22;67217;51.008;4.644;2023-01-25T17:16:24;1.00;78.90
69800;DHT22;67217;51.008;4.644;2023-01-25T17:18:57;0.90;79.00
69800;DHT22;67217;51.008;4.644;2023-01-25T17:21:26;0.90;79.10
69800;DHT22;67217;51.008;4.644;2023-01-25T17:23:55;1.00;78.90
69800;DHT22;67217;51.008;4.644;2023-01-25T17:26:24;1.00;78.90
69800;DHT22;67217;51.008;4.644;2023-01-25T17:28:53;1.10;79.20
69800;DHT22;67217;51.008;4.644;2023-01-25T17:31:28;1.30;78.00
69800;DHT22;67217;51.008;4.644;2023-01-25T17:33:53;1.40;77.70
69800;DHT22;67217;51.008;4.644;2023-01-25T17:36:21;1.30;78.40
69800;DHT22;67217;51.008;4.644;2023-01-25T17:38:49;1.20;78.90
69800;DHT22;67217;51.008;4.644;2023-01-25T17:41:19;1.20;78.30
69800;DHT22;67217;51.008;4.644;2023-01-25T17:43:51;1.30;78.40
69800;DHT22;67217;51.008;4.644;2023-01-25T17:46:23;1.40;78.00
69800;DHT22;67217;51.008;4.644;2023-01-25T17:48:52;1.30;78.00
69800;DHT22;67217;51.008;4.644;2023-01-25T17:51:20;1.20;78.40